sensor_id;sensor_type;location;lat;lon;timestamp;P1;durP1;ratioP1;P2;durP2;ratioP2
7761;SDS011;3925;48.636;9.516;2023-07-02T00:01:44;4.00;;;2.23;;
7761;SDS011;3925;48.636;9.516;2023-07-02T00:04:11;2.30;;;2.10;;
7761;SDS011;3925;48.636;9.516;2023-07-02T00:06:42;3.00;;;2.80;;
7761;SDS011;3925;48.636;9.516;2023-07-02T00:09:09;2.17;;;2.07;;
7761;SDS011;3925;48.636;9.516;2023-07-02T00:11:37;2.37;;;2.27;;
7761;SDS011;3925;48.636;9.516;2023-07-02T00:14:04;2.37;;;2.17;;
7761;SDS011;3925;48.636;9.516;2023-07-02T00:16:31;4.37;;;2.07;;
7761;SDS011;3925;48.636;9.516;2023-07-02T00:18:58;2.70;;;2.50;;
7761;SDS011;3925;48.636;9.516;2023-07-02T00:21:25;3.00;;;2.60;;
7761;SDS011;3925;48.636;9.516;2023-07-02T00:23:54;3.40;;;2.60;;
7761;SDS011;3925;48.636;9.516;2023-07-02T00:26:22;2.53;;;2.33;;
7761;SDS011;3925;48.636;9.516;2023-07-02T00:28:50;2.90;;;2.70;;
7761;SDS011;3925;48.636;9.516;2023-07-02T00:31:17;3.30;;;2.73;;
7761;SDS011;3925;48.636;9.516;2023-07-02T00:33:43;2.63;;;2.43;;
7761;SDS011;3925;48.636;9.516;2023-07-02T00:36:10;2.57;;;2.37;;
7761;SDS011;3925;48.636;9.516;2023-07-02T00:38:40;3.20;;;2.90;;
7761;SDS011;3925;48.636;9.516;2023-07-02T00:41:09;3.20;;;2.47;;
7761;SDS011;3925;48.636;9.516;2023-07-02T00:43:37;2.10;;;2.00;;
7761;SDS011;3925;48.636;9.516;2023-07-02T00:46:08;2.47;;;2.37;;
7761;SDS011;3925;48.636;9.516;2023-07-02T00:48:38;3.87;;;2.50;;
7761;SDS011;3925;48.636;9.516;2023-07-02T00:51:05;3.10;;;2.90;;
7761;SDS011;3925;48.636;9.516;2023-07-02T00:53:32;2.77;;;2.33;;
7761;SDS011;3925;48.636;9.516;2023-07-02T00:55:58;3.13;;;2.83;;
7761;SDS011;3925;48.636;9.516;2023-07-02T00:58:27;4.00;;;2.97;;
7761;SDS011;3925;48.636;9.516;2023-07-02T01:00:54;2.73;;;2.53;;
7761;SDS011;3925;48.636;9.516;2023-07-02T01:03:22;3.10;;;2.83;;
7761;SDS011;3925;48.636;9.516;2023-07-02T01:05:49;2.20;;;2.10;;
7761;SDS011;3925;48.636;9.516;2023-07-02T01:08:15;3.17;;;2.87;;
7761;SDS011;3925;48.636;9.516;2023-07-02T01:10:42;2.77;;;2.57;;
7761;SDS011;3925;48.636;9.516;2023-07-02T01:13:12;2.97;;;2.30;;
7761;SDS011;3925;48.636;9.516;2023-07-02T01:15:43;2.27;;;2.07;;
7761;SDS011;3925;48.636;9.516;2023-07-02T01:18:11;2.67;;;2.27;;
7761;SDS011;3925;48.636;9.516;2023-07-02T01:20:42;4.50;;;2.63;;
7761;SDS011;3925;48.636;9.516;2023-07-02T01:23:09;4.80;;;2.43;;
7761;SDS011;3925;48.636;9.516;2023-07-02T01:25:37;3.07;;;2.87;;
7761;SDS011;3925;48.636;9.516;2023-07-02T01:28:04;3.17;;;2.60;;
7761;SDS011;3925;48.636;9.516;2023-07-02T01:30:33;3.13;;;2.93;;
7761;SDS011;3925;48.636;9.516;2023-07-02T01:33:00;2.93;;;2.73;;
7761;SDS011;3925;48.636;9.516;2023-07-02T01:35:27;2.57;;;2.37;;
7761;SDS011;3925;48.636;9.516;2023-07-02T01:37:55;2.70;;;2.50;;
7761;SDS011;3925;48.636;9.516;2023-07-02T01:40:23;8.07;;;2.67;;
7761;SDS011;3925;48.636;9.516;2023-07-02T01:42:50;2.83;;;2.63;;
7761;SDS011;3925;48.636;9.516;2023-07-02T01:45:19;3.33;;;3.03;;
7761;SDS011;3925;48.636;9.516;2023-07-02T01:47:46;3.00;;;2.53;;
7761;SDS011;3925;48.636;9.516;2023-07-02T01:50:13;3.00;;;2.80;;
7761;SDS011;3925;48.636;9.516;2023-07-02T01:52:40;3.03;;;2.70;;
7761;SDS011;3925;48.636;9.516;2023-07-02T01:55:08;3.33;;;2.80;;
7761;SDS011;3925;48.636;9.516;2023-07-02T01:57:35;3.50;;;2.90;;
7761;SDS011;3925;48.636;9.516;2023-07-02T02:00:02;2.70;;;2.50;;
7761;SDS011;3925;48.636;9.516;2023-07-02T02:02:29;3.30;;;3.00;;
7761;SDS011;3925;48.636;9.516;2023-07-02T02:04:56;5.00;;;2.60;;
7761;SDS011;3925;48.636;9.516;2023-07-02T02:07:23;2.37;;;2.27;;
7761;SDS011;3925;48.636;9.516;2023-07-02T02:09:50;4.07;;;2.90;;
7761;SDS011;3925;48.636;9.516;2023-07-02T02:12:19;3.07;;;2.87;;
7761;SDS011;3925;48.636;9.516;2023-07-02T02:14:45;2.80;;;2.60;;
7761;SDS011;3925;48.636;9.516;2023-07-02T02:17:12;3.23;;;2.70;;
7761;SDS011;3925;48.636;9.516;2023-07-02T02:19:39;2.67;;;2.47;;
7761;SDS011;3925;48.636;9.516;2023-07-02T02:22:06;3.20;;;2.60;;
7761;SDS011;3925;48.636;9.516;2023-07-02T02:24:33;3.83;;;2.53;;
7761;SDS011;3925;48.636;9.516;2023-07-02T02:27:00;2.87;;;2.57;;
7761;SDS011;3925;48.636;9.516;2023-07-02T02:29:28;3.00;;;2.80;;
7761;SDS011;3925;48.636;9.516;2023-07-02T02:31:55;2.80;;;2.60;;
7761;SDS011;3925;48.636;9.516;2023-07-02T02:34:21;4.60;;;2.87;;
7761;SDS011;3925;48.636;9.516;2023-07-02T02:36:48;2.63;;;2.30;;
7761;SDS011;3925;48.636;9.516;2023-07-02T02:39:15;5.17;;;3.27;;
7761;SDS011;3925;48.636;9.516;2023-07-02T02:41:42;2.53;;;2.43;;
7761;SDS011;3925;48.636;9.516;2023-07-02T02:44:08;2.83;;;2.60;;
7761;SDS011;3925;48.636;9.516;2023-07-02T02:46:37;3.33;;;3.03;;
7761;SDS011;3925;48.636;9.516;2023-07-02T02:49:03;2.10;;;1.90;;
7761;SDS011;3925;48.636;9.516;2023-07-02T02:51:30;4.50;;;2.77;;
7761;SDS011;3925;48.636;9.516;2023-07-02T02:53:57;3.33;;;2.80;;
7761;SDS011;3925;48.636;9.516;2023-07-02T02:56:24;4.43;;;2.60;;
7761;SDS011;3925;48.636;9.516;2023-07-02T02:58:51;2.70;;;2.40;;
7761;SDS011;3925;48.636;9.516;2023-07-02T03:01:19;2.70;;;2.50;;
7761;SDS011;3925;48.636;9.516;2023-07-02T03:03:47;3.47;;;2.40;;
7761;SDS011;3925;48.636;9.516;2023-07-02T03:06:14;2.80;;;2.50;;
7761;SDS011;3925;48.636;9.516;2023-07-02T03:08:41;2.80;;;2.60;;
7761;SDS011;3925;48.636;9.516;2023-07-02T03:11:07;3.10;;;2.90;;
7761;SDS011;3925;48.636;9.516;2023-07-02T03:13:34;3.23;;;3.03;;
7761;SDS011;3925;48.636;9.516;2023-07-02T03:16:01;5.30;;;3.13;;
7761;SDS011;3925;48.636;9.516;2023-07-02T03:18:28;5.63;;;3.93;;
7761;SDS011;3925;48.636;9.516;2023-07-02T03:20:56;5.07;;;3.23;;
7761;SDS011;3925;48.636;9.516;2023-07-02T03:23:23;3.27;;;3.07;;
7761;SDS011;3925;48.636;9.516;2023-07-02T03:25:50;4.10;;;2.80;;
7761;SDS011;3925;48.636;9.516;2023-07-02T03:28:17;3.57;;;3.27;;
7761;SDS011;3925;48.636;9.516;2023-07-02T03:30:44;3.17;;;2.83;;
7761;SDS011;3925;48.636;9.516;2023-07-02T03:33:11;3.27;;;2.97;;
7761;SDS011;3925;48.636;9.516;2023-07-02T03:35:37;2.93;;;2.73;;
7761;SDS011;3925;48.636;9.516;2023-07-02T03:38:06;3.67;;;2.63;;
7761;SDS011;3925;48.636;9.516;2023-07-02T03:40:33;2.87;;;2.67;;
7761;SDS011;3925;48.636;9.516;2023-07-02T03:42:59;2.80;;;2.60;;
7761;SDS011;3925;48.636;9.516;2023-07-02T03:45:26;2.87;;;2.50;;
7761;SDS011;3925;48.636;9.516;2023-07-02T03:47:53;4.57;;;3.20;;
7761;SDS011;3925;48.636;9.516;2023-07-02T03:50:20;2.93;;;2.73;;
7761;SDS011;3925;48.636;9.516;2023-07-02T03:52:47;4.00;;;3.30;;
7761;SDS011;3925;48.636;9.516;2023-07-02T03:55:15;2.50;;;2.30;;
7761;SDS011;3925;48.636;9.516;2023-07-02T03:57:42;3.43;;;3.13;;
7761;SDS011;3925;48.636;9.516;2023-07-02T04:00:09;3.80;;;3.50;;
7761;SDS011;3925;48.636;9.516;2023-07-02T04:02:37;5.00;;;3.60;;
7761;SDS011;3925;48.636;9.516;2023-07-02T04:05:04;4.00;;;3.57;;
7761;SDS011;3925;48.636;9.516;2023-07-02T04:07:32;3.70;;;3.40;;
7761;SDS011;3925;48.636;9.516;2023-07-02T04:09:58;5.70;;;3.33;;
7761;SDS011;3925;48.636;9.516;2023-07-02T04:12:27;4.30;;;4.00;;
7761;SDS011;3925;48.636;9.516;2023-07-02T04:14:54;6.73;;;3.83;;
7761;SDS011;3925;48.636;9.516;2023-07-02T04:17:20;5.83;;;3.60;;
7761;SDS011;3925;48.636;9.516;2023-07-02T04:19:47;5.87;;;3.93;;
7761;SDS011;3925;48.636;9.516;2023-07-02T04:22:15;5.70;;;3.70;;
7761;SDS011;3925;48.636;9.516;2023-07-02T04:24:43;4.50;;;3.53;;
7761;SDS011;3925;48.636;9.516;2023-07-02T04:27:10;5.03;;;4.50;;
7761;SDS011;3925;48.636;9.516;2023-07-02T04:29:39;7.43;;;3.90;;
7761;SDS011;3925;48.636;9.516;2023-07-02T04:32:06;4.77;;;4.37;;
7761;SDS011;3925;48.636;9.516;2023-07-02T04:34:34;5.60;;;4.50;;
7761;SDS011;3925;48.636;9.516;2023-07-02T04:37:01;4.70;;;4.30;;
7761;SDS011;3925;48.636;9.516;2023-07-02T04:39:28;4.93;;;4.43;;
7761;SDS011;3925;48.636;9.516;2023-07-02T04:41:55;4.50;;;4.00;;
7761;SDS011;3925;48.636;9.516;2023-07-02T04:44:22;4.13;;;3.83;;
7761;SDS011;3925;48.636;9.516;2023-07-02T04:46:56;5.33;;;4.57;;
7761;SDS011;3925;48.636;9.516;2023-07-02T04:49:24;9.00;;;4.60;;
7761;SDS011;3925;48.636;9.516;2023-07-02T04:51:51;4.87;;;4.43;;
7761;SDS011;3925;48.636;9.516;2023-07-02T04:54:18;4.70;;;4.17;;
7761;SDS011;3925;48.636;9.516;2023-07-02T04:56:46;5.50;;;4.03;;
7761;SDS011;3925;48.636;9.516;2023-07-02T04:59:13;4.70;;;3.40;;
7761;SDS011;3925;48.636;9.516;2023-07-02T05:01:40;5.17;;;3.90;;
7761;SDS011;3925;48.636;9.516;2023-07-02T05:04:09;3.33;;;3.10;;
7761;SDS011;3925;48.636;9.516;2023-07-02T05:06:37;7.27;;;4.70;;
7761;SDS011;3925;48.636;9.516;2023-07-02T05:09:04;7.03;;;5.07;;
7761;SDS011;3925;48.636;9.516;2023-07-02T05:11:30;7.20;;;4.77;;
7761;SDS011;3925;48.636;9.516;2023-07-02T05:13:57;4.50;;;4.03;;
7761;SDS011;3925;48.636;9.516;2023-07-02T05:16:24;4.30;;;3.93;;
7761;SDS011;3925;48.636;9.516;2023-07-02T05:18:51;4.23;;;3.83;;
7761;SDS011;3925;48.636;9.516;2023-07-02T05:21:19;3.90;;;3.60;;
7761;SDS011;3925;48.636;9.516;2023-07-02T05:23:47;3.60;;;3.30;;
7761;SDS011;3925;48.636;9.516;2023-07-02T05:26:14;5.53;;;3.93;;
7761;SDS011;3925;48.636;9.516;2023-07-02T05:28:41;6.77;;;3.97;;
7761;SDS011;3925;48.636;9.516;2023-07-02T05:31:09;3.77;;;3.27;;
7761;SDS011;3925;48.636;9.516;2023-07-02T05:33:36;3.20;;;2.90;;
7761;SDS011;3925;48.636;9.516;2023-07-02T05:36:04;4.20;;;3.80;;
7761;SDS011;3925;48.636;9.516;2023-07-02T05:38:32;4.20;;;3.60;;
7761;SDS011;3925;48.636;9.516;2023-07-02T05:40:59;3.77;;;3.47;;
7761;SDS011;3925;48.636;9.516;2023-07-02T05:43:26;3.97;;;3.50;;
7761;SDS011;3925;48.636;9.516;2023-07-02T05:45:53;3.03;;;2.77;;
7761;SDS011;3925;48.636;9.516;2023-07-02T05:48:20;3.90;;;2.90;;
7761;SDS011;3925;48.636;9.516;2023-07-02T05:50:46;2.67;;;2.47;;
7761;SDS011;3925;48.636;9.516;2023-07-02T05:53:13;4.80;;;3.13;;
7761;SDS011;3925;48.636;9.516;2023-07-02T05:55:41;4.30;;;2.60;;
7761;SDS011;3925;48.636;9.516;2023-07-02T05:58:09;3.30;;;2.77;;
7761;SDS011;3925;48.636;9.516;2023-07-02T06:00:36;2.90;;;2.60;;
7761;SDS011;3925;48.636;9.516;2023-07-02T06:03:03;2.73;;;2.20;;
7761;SDS011;3925;48.636;9.516;2023-07-02T06:05:30;3.33;;;2.30;;
7761;SDS011;3925;48.636;9.516;2023-07-02T06:07:57;2.33;;;2.13;;
7761;SDS011;3925;48.636;9.516;2023-07-02T06:10:24;2.60;;;2.40;;
7761;SDS011;3925;48.636;9.516;2023-07-02T06:12:52;2.23;;;2.03;;
7761;SDS011;3925;48.636;9.516;2023-07-02T06:15:19;2.27;;;2.07;;
7761;SDS011;3925;48.636;9.516;2023-07-02T06:17:46;1.90;;;1.80;;
7761;SDS011;3925;48.636;9.516;2023-07-02T06:20:13;1.73;;;1.50;;
7761;SDS011;3925;48.636;9.516;2023-07-02T06:22:39;2.90;;;1.80;;
7761;SDS011;3925;48.636;9.516;2023-07-02T06:25:07;2.83;;;2.00;;
7761;SDS011;3925;48.636;9.516;2023-07-02T06:27:34;2.73;;;1.90;;
7761;SDS011;3925;48.636;9.516;2023-07-02T06:30:03;3.20;;;2.23;;
7761;SDS011;3925;48.636;9.516;2023-07-02T06:32:31;3.00;;;2.70;;
7761;SDS011;3925;48.636;9.516;2023-07-02T06:34:58;2.93;;;2.60;;
7761;SDS011;3925;48.636;9.516;2023-07-02T06:37:24;4.90;;;2.47;;
7761;SDS011;3925;48.636;9.516;2023-07-02T06:39:51;3.10;;;2.80;;
7761;SDS011;3925;48.636;9.516;2023-07-02T06:42:18;3.90;;;3.30;;
7761;SDS011;3925;48.636;9.516;2023-07-02T06:44:45;3.43;;;3.13;;
7761;SDS011;3925;48.636;9.516;2023-07-02T06:47:13;4.57;;;3.97;;
7761;SDS011;3925;48.636;9.516;2023-07-02T06:49:40;5.50;;;4.27;;
7761;SDS011;3925;48.636;9.516;2023-07-02T06:52:07;4.67;;;4.17;;
7761;SDS011;3925;48.636;9.516;2023-07-02T06:54:34;4.53;;;3.90;;
7761;SDS011;3925;48.636;9.516;2023-07-02T06:57:01;5.97;;;4.37;;
7761;SDS011;3925;48.636;9.516;2023-07-02T06:59:28;6.80;;;4.70;;
7761;SDS011;3925;48.636;9.516;2023-07-02T07:01:54;7.03;;;4.83;;
7761;SDS011;3925;48.636;9.516;2023-07-02T07:04:23;5.60;;;5.10;;
7761;SDS011;3925;48.636;9.516;2023-07-02T07:06:49;6.77;;;5.53;;
7761;SDS011;3925;48.636;9.516;2023-07-02T07:09:16;6.23;;;5.20;;
7761;SDS011;3925;48.636;9.516;2023-07-02T07:11:43;5.33;;;4.90;;
7761;SDS011;3925;48.636;9.516;2023-07-02T07:14:10;7.53;;;5.97;;
7761;SDS011;3925;48.636;9.516;2023-07-02T07:16:37;7.53;;;6.20;;
7761;SDS011;3925;48.636;9.516;2023-07-02T07:19:04;8.67;;;6.97;;
7761;SDS011;3925;48.636;9.516;2023-07-02T07:21:33;10.93;;;7.30;;
7761;SDS011;3925;48.636;9.516;2023-07-02T07:24:00;9.93;;;6.17;;
7761;SDS011;3925;48.636;9.516;2023-07-02T07:26:27;9.37;;;7.23;;
7761;SDS011;3925;48.636;9.516;2023-07-02T07:28:54;8.20;;;6.87;;
7761;SDS011;3925;48.636;9.516;2023-07-02T07:31:22;7.97;;;6.30;;
7761;SDS011;3925;48.636;9.516;2023-07-02T07:33:50;9.27;;;6.87;;
7761;SDS011;3925;48.636;9.516;2023-07-02T07:36:16;8.37;;;6.50;;
7761;SDS011;3925;48.636;9.516;2023-07-02T07:38:45;8.10;;;7.20;;
7761;SDS011;3925;48.636;9.516;2023-07-02T07:41:12;6.40;;;5.80;;
7761;SDS011;3925;48.636;9.516;2023-07-02T07:43:38;12.03;;;6.63;;
7761;SDS011;3925;48.636;9.516;2023-07-02T07:46:05;12.93;;;6.43;;
7761;SDS011;3925;48.636;9.516;2023-07-02T07:48:32;9.10;;;6.63;;
7761;SDS011;3925;48.636;9.516;2023-07-02T07:50:59;8.83;;;6.60;;
7761;SDS011;3925;48.636;9.516;2023-07-02T07:53:26;6.07;;;5.47;;
7761;SDS011;3925;48.636;9.516;2023-07-02T07:55:54;6.03;;;5.40;;
7761;SDS011;3925;48.636;9.516;2023-07-02T07:58:21;11.53;;;6.50;;
7761;SDS011;3925;48.636;9.516;2023-07-02T08:00:49;6.07;;;5.40;;
7761;SDS011;3925;48.636;9.516;2023-07-02T08:03:15;7.83;;;6.00;;
7761;SDS011;3925;48.636;9.516;2023-07-02T08:05:42;5.60;;;5.03;;
7761;SDS011;3925;48.636;9.516;2023-07-02T08:08:09;8.80;;;5.90;;
7761;SDS011;3925;48.636;9.516;2023-07-02T08:10:36;6.50;;;5.80;;
7761;SDS011;3925;48.636;9.516;2023-07-02T08:13:04;7.97;;;7.10;;
7761;SDS011;3925;48.636;9.516;2023-07-02T08:15:31;7.80;;;6.80;;
7761;SDS011;3925;48.636;9.516;2023-07-02T08:17:58;7.30;;;6.60;;
7761;SDS011;3925;48.636;9.516;2023-07-02T08:20:25;6.80;;;6.10;;
7761;SDS011;3925;48.636;9.516;2023-07-02T08:22:52;9.63;;;6.50;;
7761;SDS011;3925;48.636;9.516;2023-07-02T08:25:19;8.53;;;7.17;;
7761;SDS011;3925;48.636;9.516;2023-07-02T08:27:46;9.50;;;6.90;;
7761;SDS011;3925;48.636;9.516;2023-07-02T08:30:15;7.00;;;5.97;;
7761;SDS011;3925;48.636;9.516;2023-07-02T08:32:42;9.20;;;7.10;;
7761;SDS011;3925;48.636;9.516;2023-07-02T08:35:08;9.23;;;8.30;;
7761;SDS011;3925;48.636;9.516;2023-07-02T08:37:35;8.93;;;7.50;;
7761;SDS011;3925;48.636;9.516;2023-07-02T08:40:02;10.07;;;8.97;;
7761;SDS011;3925;48.636;9.516;2023-07-02T08:42:30;9.90;;;8.87;;
7761;SDS011;3925;48.636;9.516;2023-07-02T08:44:57;9.57;;;8.10;;
7761;SDS011;3925;48.636;9.516;2023-07-02T08:47:27;9.60;;;8.57;;
7761;SDS011;3925;48.636;9.516;2023-07-02T08:49:54;13.57;;;9.80;;
7761;SDS011;3925;48.636;9.516;2023-07-02T08:52:21;9.87;;;8.87;;
7761;SDS011;3925;48.636;9.516;2023-07-02T08:54:48;9.40;;;8.50;;
7761;SDS011;3925;48.636;9.516;2023-07-02T08:57:14;10.20;;;9.20;;
7761;SDS011;3925;48.636;9.516;2023-07-02T08:59:41;10.77;;;9.63;;
7761;SDS011;3925;48.636;9.516;2023-07-02T09:02:08;12.37;;;9.87;;
7761;SDS011;3925;48.636;9.516;2023-07-02T09:04:36;14.17;;;10.50;;
7761;SDS011;3925;48.636;9.516;2023-07-02T09:07:04;11.73;;;10.63;;
7761;SDS011;3925;48.636;9.516;2023-07-02T09:09:31;11.47;;;10.30;;
7761;SDS011;3925;48.636;9.516;2023-07-02T09:11:58;10.97;;;9.97;;
7761;SDS011;3925;48.636;9.516;2023-07-02T09:14:26;11.23;;;10.03;;
7761;SDS011;3925;48.636;9.516;2023-07-02T09:17:03;15.67;;;11.47;;
7761;SDS011;3925;48.636;9.516;2023-07-02T09:19:31;11.80;;;10.17;;
7761;SDS011;3925;48.636;9.516;2023-07-02T09:21:59;12.93;;;11.63;;
7761;SDS011;3925;48.636;9.516;2023-07-02T09:24:27;11.17;;;10.07;;
7761;SDS011;3925;48.636;9.516;2023-07-02T09:26:56;14.63;;;10.47;;
7761;SDS011;3925;48.636;9.516;2023-07-02T09:29:25;11.47;;;10.47;;
7761;SDS011;3925;48.636;9.516;2023-07-02T09:31:54;13.23;;;10.73;;
7761;SDS011;3925;48.636;9.516;2023-07-02T09:34:26;11.87;;;10.67;;
7761;SDS011;3925;48.636;9.516;2023-07-02T09:36:54;12.37;;;11.00;;
7761;SDS011;3925;48.636;9.516;2023-07-02T09:39:26;10.80;;;9.67;;
7761;SDS011;3925;48.636;9.516;2023-07-02T09:41:54;13.63;;;11.50;;
7761;SDS011;3925;48.636;9.516;2023-07-02T09:44:25;12.93;;;11.63;;
7761;SDS011;3925;48.636;9.516;2023-07-02T09:46:55;12.43;;;11.23;;
7761;SDS011;3925;48.636;9.516;2023-07-02T09:49:24;13.53;;;10.83;;
7761;SDS011;3925;48.636;9.516;2023-07-02T09:51:52;12.20;;;11.10;;
7761;SDS011;3925;48.636;9.516;2023-07-02T09:54:19;12.27;;;10.07;;
7761;SDS011;3925;48.636;9.516;2023-07-02T09:56:48;10.90;;;9.80;;
7761;SDS011;3925;48.636;9.516;2023-07-02T09:59:15;12.57;;;11.37;;
7761;SDS011;3925;48.636;9.516;2023-07-02T10:01:42;10.40;;;9.30;;
7761;SDS011;3925;48.636;9.516;2023-07-02T10:04:12;10.80;;;9.80;;
7761;SDS011;3925;48.636;9.516;2023-07-02T10:06:49;11.60;;;10.60;;
7761;SDS011;3925;48.636;9.516;2023-07-02T10:09:17;11.70;;;10.40;;
7761;SDS011;3925;48.636;9.516;2023-07-02T10:11:44;11.97;;;10.67;;
7761;SDS011;3925;48.636;9.516;2023-07-02T10:14:12;12.63;;;11.43;;
7761;SDS011;3925;48.636;9.516;2023-07-02T10:16:49;14.90;;;13.30;;
7761;SDS011;3925;48.636;9.516;2023-07-02T10:19:17;16.60;;;15.00;;
7761;SDS011;3925;48.636;9.516;2023-07-02T10:21:43;16.20;;;14.60;;
7761;SDS011;3925;48.636;9.516;2023-07-02T10:24:12;16.57;;;14.90;;
7761;SDS011;3925;48.636;9.516;2023-07-02T10:26:51;16.40;;;13.97;;
7761;SDS011;3925;48.636;9.516;2023-07-02T10:29:20;16.13;;;14.30;;
7761;SDS011;3925;48.636;9.516;2023-07-02T10:31:48;16.13;;;14.80;;
7761;SDS011;3925;48.636;9.516;2023-07-02T10:34:15;18.97;;;14.70;;
7761;SDS011;3925;48.636;9.516;2023-07-02T10:36:42;16.67;;;14.80;;
7761;SDS011;3925;48.636;9.516;2023-07-02T10:39:09;17.73;;;15.90;;
7761;SDS011;3925;48.636;9.516;2023-07-02T10:41:36;17.13;;;15.00;;
7761;SDS011;3925;48.636;9.516;2023-07-02T10:44:06;17.80;;;16.07;;
7761;SDS011;3925;48.636;9.516;2023-07-02T10:46:42;19.53;;;17.20;;
7761;SDS011;3925;48.636;9.516;2023-07-02T10:49:09;20.20;;;18.10;;
7761;SDS011;3925;48.636;9.516;2023-07-02T10:51:37;18.47;;;16.57;;
7761;SDS011;3925;48.636;9.516;2023-07-02T10:54:03;17.00;;;14.97;;
7761;SDS011;3925;48.636;9.516;2023-07-02T10:56:31;17.67;;;15.23;;
7761;SDS011;3925;48.636;9.516;2023-07-02T10:58:58;17.20;;;15.37;;
7761;SDS011;3925;48.636;9.516;2023-07-02T11:01:25;18.33;;;16.53;;
7761;SDS011;3925;48.636;9.516;2023-07-02T11:03:58;16.57;;;14.97;;
7761;SDS011;3925;48.636;9.516;2023-07-02T11:06:26;17.10;;;15.30;;
7761;SDS011;3925;48.636;9.516;2023-07-02T11:08:53;21.47;;;16.80;;
7761;SDS011;3925;48.636;9.516;2023-07-02T11:11:21;17.77;;;14.10;;
7761;SDS011;3925;48.636;9.516;2023-07-02T11:13:49;17.33;;;15.53;;
7761;SDS011;3925;48.636;9.516;2023-07-02T11:16:21;14.43;;;12.93;;
7761;SDS011;3925;48.636;9.516;2023-07-02T11:18:51;17.33;;;15.63;;
7761;SDS011;3925;48.636;9.516;2023-07-02T11:21:20;16.90;;;15.20;;
7761;SDS011;3925;48.636;9.516;2023-07-02T11:23:47;16.97;;;14.40;;
7761;SDS011;3925;48.636;9.516;2023-07-02T11:26:14;17.20;;;15.47;;
7761;SDS011;3925;48.636;9.516;2023-07-02T11:28:50;15.80;;;14.10;;
7761;SDS011;3925;48.636;9.516;2023-07-02T11:31:24;15.77;;;14.17;;
7761;SDS011;3925;48.636;9.516;2023-07-02T11:33:52;16.80;;;14.27;;
7761;SDS011;3925;48.636;9.516;2023-07-02T11:36:21;15.93;;;14.37;;
7761;SDS011;3925;48.636;9.516;2023-07-02T11:38:49;17.10;;;14.47;;
7761;SDS011;3925;48.636;9.516;2023-07-02T11:41:17;16.27;;;14.57;;
7761;SDS011;3925;48.636;9.516;2023-07-02T11:43:45;18.70;;;14.93;;
7761;SDS011;3925;48.636;9.516;2023-07-02T11:46:12;17.23;;;15.47;;
7761;SDS011;3925;48.636;9.516;2023-07-02T11:48:39;18.17;;;15.13;;
7761;SDS011;3925;48.636;9.516;2023-07-02T11:51:06;16.80;;;14.70;;
7761;SDS011;3925;48.636;9.516;2023-07-02T11:53:34;17.23;;;15.53;;
7761;SDS011;3925;48.636;9.516;2023-07-02T11:56:01;17.97;;;16.07;;
7761;SDS011;3925;48.636;9.516;2023-07-02T11:58:28;20.13;;;17.00;;
7761;SDS011;3925;48.636;9.516;2023-07-02T12:00:55;16.30;;;14.60;;
7761;SDS011;3925;48.636;9.516;2023-07-02T12:03:22;18.17;;;16.27;;
7761;SDS011;3925;48.636;9.516;2023-07-02T12:05:48;18.70;;;16.03;;
7761;SDS011;3925;48.636;9.516;2023-07-02T12:08:16;18.80;;;16.83;;
7761;SDS011;3925;48.636;9.516;2023-07-02T12:10:44;16.77;;;15.17;;
7761;SDS011;3925;48.636;9.516;2023-07-02T12:13:11;15.80;;;14.10;;
7761;SDS011;3925;48.636;9.516;2023-07-02T12:15:38;18.47;;;15.00;;
7761;SDS011;3925;48.636;9.516;2023-07-02T12:18:05;17.30;;;15.60;;
7761;SDS011;3925;48.636;9.516;2023-07-02T12:20:32;20.00;;;16.30;;
7761;SDS011;3925;48.636;9.516;2023-07-02T12:22:58;20.53;;;16.40;;
7761;SDS011;3925;48.636;9.516;2023-07-02T12:25:25;17.23;;;15.47;;
7761;SDS011;3925;48.636;9.516;2023-07-02T12:27:53;16.73;;;14.70;;
7761;SDS011;3925;48.636;9.516;2023-07-02T12:30:20;15.63;;;14.03;;
7761;SDS011;3925;48.636;9.516;2023-07-02T12:32:47;16.40;;;14.70;;
7761;SDS011;3925;48.636;9.516;2023-07-02T12:35:14;16.47;;;14.87;;
7761;SDS011;3925;48.636;9.516;2023-07-02T12:37:44;18.27;;;15.70;;
7761;SDS011;3925;48.636;9.516;2023-07-02T12:40:12;16.77;;;15.07;;
7761;SDS011;3925;48.636;9.516;2023-07-02T12:42:40;16.70;;;14.90;;
7761;SDS011;3925;48.636;9.516;2023-07-02T12:45:09;16.67;;;14.97;;
7761;SDS011;3925;48.636;9.516;2023-07-02T12:47:37;17.10;;;15.30;;
7761;SDS011;3925;48.636;9.516;2023-07-02T12:50:05;17.77;;;15.67;;
7761;SDS011;3925;48.636;9.516;2023-07-02T12:52:32;19.13;;;16.90;;
7761;SDS011;3925;48.636;9.516;2023-07-02T12:54:59;17.67;;;15.03;;
7761;SDS011;3925;48.636;9.516;2023-07-02T12:57:26;18.83;;;13.83;;
7761;SDS011;3925;48.636;9.516;2023-07-02T12:59:53;15.10;;;13.50;;
7761;SDS011;3925;48.636;9.516;2023-07-02T13:02:21;15.60;;;14.00;;
7761;SDS011;3925;48.636;9.516;2023-07-02T13:04:49;19.17;;;13.50;;
7761;SDS011;3925;48.636;9.516;2023-07-02T13:07:17;15.17;;;13.67;;
7761;SDS011;3925;48.636;9.516;2023-07-02T13:09:44;15.17;;;13.67;;
7761;SDS011;3925;48.636;9.516;2023-07-02T13:12:11;15.23;;;13.60;;
7761;SDS011;3925;48.636;9.516;2023-07-02T13:14:38;14.73;;;13.20;;
7761;SDS011;3925;48.636;9.516;2023-07-02T13:17:05;15.40;;;13.80;;
7761;SDS011;3925;48.636;9.516;2023-07-02T13:19:33;13.70;;;12.40;;
7761;SDS011;3925;48.636;9.516;2023-07-02T13:22:00;15.00;;;12.97;;
7761;SDS011;3925;48.636;9.516;2023-07-02T13:24:28;13.80;;;12.40;;
7761;SDS011;3925;48.636;9.516;2023-07-02T13:26:59;15.97;;;13.63;;
7761;SDS011;3925;48.636;9.516;2023-07-02T13:29:28;14.87;;;13.27;;
7761;SDS011;3925;48.636;9.516;2023-07-02T13:31:55;15.00;;;13.00;;
7761;SDS011;3925;48.636;9.516;2023-07-02T13:34:22;14.97;;;13.47;;
7761;SDS011;3925;48.636;9.516;2023-07-02T13:36:50;16.47;;;13.73;;
7761;SDS011;3925;48.636;9.516;2023-07-02T13:39:17;15.87;;;14.27;;
7761;SDS011;3925;48.636;9.516;2023-07-02T13:41:44;15.20;;;13.60;;
7761;SDS011;3925;48.636;9.516;2023-07-02T13:44:11;14.50;;;13.07;;
7761;SDS011;3925;48.636;9.516;2023-07-02T13:46:38;14.50;;;13.03;;
7761;SDS011;3925;48.636;9.516;2023-07-02T13:49:05;14.30;;;12.30;;
7761;SDS011;3925;48.636;9.516;2023-07-02T13:51:32;16.30;;;13.33;;
7761;SDS011;3925;48.636;9.516;2023-07-02T13:54:00;15.20;;;13.70;;
7761;SDS011;3925;48.636;9.516;2023-07-02T13:56:27;18.07;;;14.43;;
7761;SDS011;3925;48.636;9.516;2023-07-02T13:59:02;13.90;;;12.60;;
7761;SDS011;3925;48.636;9.516;2023-07-02T14:01:30;14.33;;;12.83;;
7761;SDS011;3925;48.636;9.516;2023-07-02T14:03:57;13.83;;;11.73;;
7761;SDS011;3925;48.636;9.516;2023-07-02T14:06:24;14.93;;;13.43;;
7761;SDS011;3925;48.636;9.516;2023-07-02T14:08:51;13.33;;;12.03;;
7761;SDS011;3925;48.636;9.516;2023-07-02T14:11:18;16.27;;;13.00;;
7761;SDS011;3925;48.636;9.516;2023-07-02T14:13:46;15.40;;;13.17;;
7761;SDS011;3925;48.636;9.516;2023-07-02T14:16:14;14.10;;;12.43;;
7761;SDS011;3925;48.636;9.516;2023-07-02T14:18:41;12.90;;;11.33;;
7761;SDS011;3925;48.636;9.516;2023-07-02T14:21:08;15.23;;;13.40;;
7761;SDS011;3925;48.636;9.516;2023-07-02T14:23:35;14.63;;;12.83;;
7761;SDS011;3925;48.636;9.516;2023-07-02T14:26:02;15.17;;;13.70;;
7761;SDS011;3925;48.636;9.516;2023-07-02T14:28:29;16.73;;;14.33;;
7761;SDS011;3925;48.636;9.516;2023-07-02T14:30:56;14.17;;;12.70;;
7761;SDS011;3925;48.636;9.516;2023-07-02T14:33:25;13.37;;;12.07;;
7761;SDS011;3925;48.636;9.516;2023-07-02T14:35:53;16.20;;;12.80;;
7761;SDS011;3925;48.636;9.516;2023-07-02T14:38:20;17.13;;;13.70;;
7761;SDS011;3925;48.636;9.516;2023-07-02T14:40:47;15.60;;;14.00;;
7761;SDS011;3925;48.636;9.516;2023-07-02T14:43:14;15.43;;;13.93;;
7761;SDS011;3925;48.636;9.516;2023-07-02T14:45:43;14.90;;;13.40;;
7761;SDS011;3925;48.636;9.516;2023-07-02T14:48:11;14.60;;;13.10;;
7761;SDS011;3925;48.636;9.516;2023-07-02T14:50:42;15.80;;;14.30;;
7761;SDS011;3925;48.636;9.516;2023-07-02T14:53:10;15.50;;;13.40;;
7761;SDS011;3925;48.636;9.516;2023-07-02T14:55:37;15.97;;;14.27;;
7761;SDS011;3925;48.636;9.516;2023-07-02T14:58:05;17.90;;;15.90;;
7761;SDS011;3925;48.636;9.516;2023-07-02T15:00:33;16.57;;;14.80;;
7761;SDS011;3925;48.636;9.516;2023-07-02T15:03:00;16.60;;;14.80;;
7761;SDS011;3925;48.636;9.516;2023-07-02T15:05:27;15.80;;;14.07;;
7761;SDS011;3925;48.636;9.516;2023-07-02T15:07:56;14.87;;;13.37;;